sensor_id;sensor_type;location;lat;lon;timestamp;P1;durP1;ratioP1;P2;durP2;ratioP2
81811;SDS011;71243;51.848;5.768;2023-07-29T00:00:49;12.68;;;7.07;;
81811;SDS011;71243;51.848;5.768;2023-07-29T00:03:14;14.40;;;7.43;;
81811;SDS011;71243;51.848;5.768;2023-07-29T00:05:40;14.07;;;6.83;;
81811;SDS011;71243;51.848;5.768;2023-07-29T00:08:05;14.05;;;7.07;;
81811;SDS011;71243;51.848;5.768;2023-07-29T00:10:31;12.40;;;6.53;;
81811;SDS011;71243;51.848;5.768;2023-07-29T00:12:57;13.93;;;6.70;;
81811;SDS011;71243;51.848;5.768;2023-07-29T00:15:23;12.10;;;6.22;;
81811;SDS011;71243;51.848;5.768;2023-07-29T00:17:48;12.27;;;6.65;;
81811;SDS011;71243;51.848;5.768;2023-07-29T00:20:13;12.73;;;6.72;;
81811;SDS011;71243;51.848;5.768;2023-07-29T00:22:39;13.18;;;6.43;;
81811;SDS011;71243;51.848;5.768;2023-07-29T00:25:04;13.77;;;7.17;;
81811;SDS011;71243;51.848;5.768;2023-07-29T00:27:29;14.10;;;6.93;;
81811;SDS011;71243;51.848;5.768;2023-07-29T00:29:55;12.77;;;6.37;;
81811;SDS011;71243;51.848;5.768;2023-07-29T00:32:20;13.45;;;6.93;;
81811;SDS011;71243;51.848;5.768;2023-07-29T00:34:45;13.17;;;6.60;;
81811;SDS011;71243;51.848;5.768;2023-07-29T00:37:10;11.77;;;6.57;;
81811;SDS011;71243;51.848;5.768;2023-07-29T00:39:36;12.30;;;7.23;;
81811;SDS011;71243;51.848;5.768;2023-07-29T00:42:01;12.75;;;7.45;;
81811;SDS011;71243;51.848;5.768;2023-07-29T00:44:26;16.10;;;7.03;;
81811;SDS011;71243;51.848;5.768;2023-07-29T00:46:52;11.97;;;7.03;;
81811;SDS011;71243;51.848;5.768;2023-07-29T00:49:19;15.73;;;7.50;;
81811;SDS011;71243;51.848;5.768;2023-07-29T00:51:45;13.25;;;6.75;;
81811;SDS011;71243;51.848;5.768;2023-07-29T00:54:10;13.75;;;7.47;;
81811;SDS011;71243;51.848;5.768;2023-07-29T00:56:36;14.45;;;7.13;;
81811;SDS011;71243;51.848;5.768;2023-07-29T00:59:02;14.27;;;6.90;;
81811;SDS011;71243;51.848;5.768;2023-07-29T01:01:28;13.05;;;6.57;;
81811;SDS011;71243;51.848;5.768;2023-07-29T01:03:54;11.88;;;6.60;;
81811;SDS011;71243;51.848;5.768;2023-07-29T01:09:50;11.32;;;6.20;;
81811;SDS011;71243;51.848;5.768;2023-07-29T01:12:06;11.70;;;6.70;;
81811;SDS011;71243;51.848;5.768;2023-07-29T01:17:23;12.30;;;6.43;;
81811;SDS011;71243;51.848;5.768;2023-07-29T01:24:51;12.27;;;5.80;;
81811;SDS011;71243;51.848;5.768;2023-07-29T01:27:16;14.00;;;7.70;;
81811;SDS011;71243;51.848;5.768;2023-07-29T01:29:41;12.43;;;7.00;;
81811;SDS011;71243;51.848;5.768;2023-07-29T01:32:09;12.77;;;7.80;;
81811;SDS011;71243;51.848;5.768;2023-07-29T01:34:41;13.60;;;7.15;;
81811;SDS011;71243;51.848;5.768;2023-07-29T01:37:15;14.23;;;8.23;;
81811;SDS011;71243;51.848;5.768;2023-07-29T01:39:47;15.38;;;8.07;;
81811;SDS011;71243;51.848;5.768;2023-07-29T01:42:14;13.65;;;8.07;;
81811;SDS011;71243;51.848;5.768;2023-07-29T01:44:40;12.48;;;7.75;;
81811;SDS011;71243;51.848;5.768;2023-07-29T01:47:06;16.20;;;8.02;;
81811;SDS011;71243;51.848;5.768;2023-07-29T01:49:31;15.43;;;8.20;;
81811;SDS011;71243;51.848;5.768;2023-07-29T01:51:56;13.93;;;8.03;;
81811;SDS011;71243;51.848;5.768;2023-07-29T01:54:21;13.35;;;7.78;;
81811;SDS011;71243;51.848;5.768;2023-07-29T01:56:46;15.87;;;8.23;;
81811;SDS011;71243;51.848;5.768;2023-07-29T01:59:12;14.60;;;8.70;;
81811;SDS011;71243;51.848;5.768;2023-07-29T02:01:37;14.27;;;8.30;;
81811;SDS011;71243;51.848;5.768;2023-07-29T02:04:02;15.17;;;8.47;;
81811;SDS011;71243;51.848;5.768;2023-07-29T02:06:27;15.10;;;8.75;;
81811;SDS011;71243;51.848;5.768;2023-07-29T02:08:53;15.77;;;8.70;;
81811;SDS011;71243;51.848;5.768;2023-07-29T02:11:19;13.68;;;7.50;;
81811;SDS011;71243;51.848;5.768;2023-07-29T02:13:44;15.13;;;7.90;;
81811;SDS011;71243;51.848;5.768;2023-07-29T02:16:09;13.47;;;7.53;;
81811;SDS011;71243;51.848;5.768;2023-07-29T02:18:35;14.80;;;8.30;;
81811;SDS011;71243;51.848;5.768;2023-07-29T02:21:00;13.53;;;8.10;;
81811;SDS011;71243;51.848;5.768;2023-07-29T02:23:25;12.97;;;7.17;;
81811;SDS011;71243;51.848;5.768;2023-07-29T02:25:50;13.17;;;6.90;;
81811;SDS011;71243;51.848;5.768;2023-07-29T02:28:16;13.13;;;6.03;;
81811;SDS011;71243;51.848;5.768;2023-07-29T02:30:41;12.53;;;5.77;;
81811;SDS011;71243;51.848;5.768;2023-07-29T02:33:06;14.05;;;5.95;;
81811;SDS011;71243;51.848;5.768;2023-07-29T02:35:32;10.60;;;5.20;;
81811;SDS011;71243;51.848;5.768;2023-07-29T02:37:57;11.43;;;4.73;;
81811;SDS011;71243;51.848;5.768;2023-07-29T02:40:22;11.47;;;4.77;;
81811;SDS011;71243;51.848;5.768;2023-07-29T02:42:47;10.07;;;4.50;;
81811;SDS011;71243;51.848;5.768;2023-07-29T02:45:12;9.10;;;4.30;;
81811;SDS011;71243;51.848;5.768;2023-07-29T02:47:38;8.95;;;4.10;;
81811;SDS011;71243;51.848;5.768;2023-07-29T02:50:03;8.85;;;3.67;;
81811;SDS011;71243;51.848;5.768;2023-07-29T02:52:29;7.47;;;3.20;;
81811;SDS011;71243;51.848;5.768;2023-07-29T02:54:54;8.10;;;3.20;;
81811;SDS011;71243;51.848;5.768;2023-07-29T02:57:19;8.40;;;3.43;;
81811;SDS011;71243;51.848;5.768;2023-07-29T02:59:44;8.73;;;3.55;;
81811;SDS011;71243;51.848;5.768;2023-07-29T03:02:10;7.90;;;3.63;;
81811;SDS011;71243;51.848;5.768;2023-07-29T03:04:35;7.97;;;3.17;;
81811;SDS011;71243;51.848;5.768;2023-07-29T03:07:00;6.97;;;3.07;;
81811;SDS011;71243;51.848;5.768;2023-07-29T03:09:25;8.13;;;3.03;;
81811;SDS011;71243;51.848;5.768;2023-07-29T03:11:51;9.27;;;3.27;;
81811;SDS011;71243;51.848;5.768;2023-07-29T03:14:16;6.97;;;3.07;;
81811;SDS011;71243;51.848;5.768;2023-07-29T03:16:41;6.87;;;2.70;;
81811;SDS011;71243;51.848;5.768;2023-07-29T03:19:06;8.10;;;3.00;;
81811;SDS011;71243;51.848;5.768;2023-07-29T03:21:31;7.70;;;2.53;;
81811;SDS011;71243;51.848;5.768;2023-07-29T03:23:57;7.30;;;2.47;;
81811;SDS011;71243;51.848;5.768;2023-07-29T03:26:22;7.50;;;2.30;;
81811;SDS011;71243;51.848;5.768;2023-07-29T03:28:47;7.25;;;2.70;;
81811;SDS011;71243;51.848;5.768;2023-07-29T03:31:12;5.43;;;2.20;;
81811;SDS011;71243;51.848;5.768;2023-07-29T03:33:37;7.23;;;2.63;;
81811;SDS011;71243;51.848;5.768;2023-07-29T03:36:03;7.03;;;2.20;;
81811;SDS011;71243;51.848;5.768;2023-07-29T03:38:28;6.20;;;2.35;;
81811;SDS011;71243;51.848;5.768;2023-07-29T03:40:53;6.83;;;2.97;;
81811;SDS011;71243;51.848;5.768;2023-07-29T03:43:19;5.80;;;2.10;;
81811;SDS011;71243;51.848;5.768;2023-07-29T03:45:44;10.93;;;2.97;;
81811;SDS011;71243;51.848;5.768;2023-07-29T03:48:09;6.00;;;2.00;;
81811;SDS011;71243;51.848;5.768;2023-07-29T03:50:35;6.47;;;2.53;;
81811;SDS011;71243;51.848;5.768;2023-07-29T03:53:01;5.85;;;1.90;;
81811;SDS011;71243;51.848;5.768;2023-07-29T03:55:27;7.00;;;2.50;;
81811;SDS011;71243;51.848;5.768;2023-07-29T03:57:52;7.22;;;1.75;;
81811;SDS011;71243;51.848;5.768;2023-07-29T04:00:17;6.30;;;2.00;;
81811;SDS011;71243;51.848;5.768;2023-07-29T04:02:42;6.30;;;2.20;;
81811;SDS011;71243;51.848;5.768;2023-07-29T04:05:08;5.37;;;1.70;;
81811;SDS011;71243;51.848;5.768;2023-07-29T04:07:33;4.63;;;1.50;;
81811;SDS011;71243;51.848;5.768;2023-07-29T04:09:59;7.90;;;1.80;;
81811;SDS011;71243;51.848;5.768;2023-07-29T04:12:25;5.78;;;2.10;;
81811;SDS011;71243;51.848;5.768;2023-07-29T04:14:50;5.13;;;1.85;;
81811;SDS011;71243;51.848;5.768;2023-07-29T04:17:15;6.20;;;2.30;;
81811;SDS011;71243;51.848;5.768;2023-07-29T04:19:40;6.80;;;1.93;;
81811;SDS011;71243;51.848;5.768;2023-07-29T04:22:06;6.47;;;1.90;;
81811;SDS011;71243;51.848;5.768;2023-07-29T04:24:32;5.47;;;1.58;;
81811;SDS011;71243;51.848;5.768;2023-07-29T04:26:57;5.22;;;1.67;;
81811;SDS011;71243;51.848;5.768;2023-07-29T04:29:23;5.57;;;1.60;;
81811;SDS011;71243;51.848;5.768;2023-07-29T04:31:49;6.35;;;2.60;;
81811;SDS011;71243;51.848;5.768;2023-07-29T04:34:15;5.90;;;1.65;;
81811;SDS011;71243;51.848;5.768;2023-07-29T04:36:40;5.68;;;2.00;;
81811;SDS011;71243;51.848;5.768;2023-07-29T04:39:05;6.53;;;2.00;;
81811;SDS011;71243;51.848;5.768;2023-07-29T04:41:31;6.40;;;2.30;;
81811;SDS011;71243;51.848;5.768;2023-07-29T04:43:56;6.00;;;1.70;;
81811;SDS011;71243;51.848;5.768;2023-07-29T04:46:21;5.43;;;1.70;;
81811;SDS011;71243;51.848;5.768;2023-07-29T04:48:46;7.28;;;2.33;;
81811;SDS011;71243;51.848;5.768;2023-07-29T04:51:11;5.73;;;1.90;;
81811;SDS011;71243;51.848;5.768;2023-07-29T04:53:37;8.70;;;2.03;;
81811;SDS011;71243;51.848;5.768;2023-07-29T04:56:02;6.30;;;2.27;;
81811;SDS011;71243;51.848;5.768;2023-07-29T04:58:28;5.57;;;2.20;;
81811;SDS011;71243;51.848;5.768;2023-07-29T05:00:53;7.05;;;2.40;;
81811;SDS011;71243;51.848;5.768;2023-07-29T05:03:18;5.93;;;2.10;;
81811;SDS011;71243;51.848;5.768;2023-07-29T05:05:43;7.70;;;2.70;;
81811;SDS011;71243;51.848;5.768;2023-07-29T05:08:08;7.20;;;2.60;;
81811;SDS011;71243;51.848;5.768;2023-07-29T05:10:34;8.80;;;3.10;;
81811;SDS011;71243;51.848;5.768;2023-07-29T05:12:59;6.63;;;2.88;;
81811;SDS011;71243;51.848;5.768;2023-07-29T05:15:24;7.50;;;2.83;;
81811;SDS011;71243;51.848;5.768;2023-07-29T05:17:50;7.68;;;2.88;;
81811;SDS011;71243;51.848;5.768;2023-07-29T05:20:15;7.15;;;2.60;;
81811;SDS011;71243;51.848;5.768;2023-07-29T05:22:40;7.80;;;2.85;;
81811;SDS011;71243;51.848;5.768;2023-07-29T05:25:06;7.03;;;3.27;;
81811;SDS011;71243;51.848;5.768;2023-07-29T05:27:31;9.13;;;3.30;;
81811;SDS011;71243;51.848;5.768;2023-07-29T05:29:57;6.80;;;2.77;;
81811;SDS011;71243;51.848;5.768;2023-07-29T05:32:22;9.27;;;3.50;;
81811;SDS011;71243;51.848;5.768;2023-07-29T05:34:47;8.23;;;3.15;;
81811;SDS011;71243;51.848;5.768;2023-07-29T05:37:12;7.97;;;3.00;;
81811;SDS011;71243;51.848;5.768;2023-07-29T05:39:38;7.87;;;3.70;;
81811;SDS011;71243;51.848;5.768;2023-07-29T05:42:03;7.80;;;3.10;;
81811;SDS011;71243;51.848;5.768;2023-07-29T05:44:28;8.30;;;3.40;;
81811;SDS011;71243;51.848;5.768;2023-07-29T05:46:54;9.25;;;3.58;;
81811;SDS011;71243;51.848;5.768;2023-07-29T05:49:19;7.60;;;3.53;;
81811;SDS011;71243;51.848;5.768;2023-07-29T05:51:44;10.30;;;2.97;;
81811;SDS011;71243;51.848;5.768;2023-07-29T05:54:09;8.40;;;2.90;;
81811;SDS011;71243;51.848;5.768;2023-07-29T05:56:34;7.73;;;3.60;;
81811;SDS011;71243;51.848;5.768;2023-07-29T05:59:00;8.07;;;3.30;;
81811;SDS011;71243;51.848;5.768;2023-07-29T06:01:25;8.63;;;3.30;;
81811;SDS011;71243;51.848;5.768;2023-07-29T06:03:51;8.02;;;3.03;;
81811;SDS011;71243;51.848;5.768;2023-07-29T06:06:16;7.67;;;3.30;;
81811;SDS011;71243;51.848;5.768;2023-07-29T06:08:41;9.90;;;3.28;;
81811;SDS011;71243;51.848;5.768;2023-07-29T06:11:06;8.67;;;3.37;;
81811;SDS011;71243;51.848;5.768;2023-07-29T06:13:32;7.23;;;2.70;;
81811;SDS011;71243;51.848;5.768;2023-07-29T06:15:57;8.27;;;3.25;;
81811;SDS011;71243;51.848;5.768;2023-07-29T06:18:23;7.47;;;3.33;;
81811;SDS011;71243;51.848;5.768;2023-07-29T06:20:48;7.93;;;3.00;;
81811;SDS011;71243;51.848;5.768;2023-07-29T06:23:13;7.55;;;2.78;;
81811;SDS011;71243;51.848;5.768;2023-07-29T06:25:38;9.73;;;3.80;;
81811;SDS011;71243;51.848;5.768;2023-07-29T06:28:03;8.30;;;3.10;;
81811;SDS011;71243;51.848;5.768;2023-07-29T06:30:29;7.83;;;3.37;;
81811;SDS011;71243;51.848;5.768;2023-07-29T06:32:54;8.10;;;3.03;;
81811;SDS011;71243;51.848;5.768;2023-07-29T06:35:19;8.13;;;2.87;;
81811;SDS011;71243;51.848;5.768;2023-07-29T06:37:44;8.47;;;3.50;;
81811;SDS011;71243;51.848;5.768;2023-07-29T06:40:10;7.27;;;3.00;;
81811;SDS011;71243;51.848;5.768;2023-07-29T06:42:35;6.47;;;2.63;;
81811;SDS011;71243;51.848;5.768;2023-07-29T06:45:00;7.93;;;3.10;;
81811;SDS011;71243;51.848;5.768;2023-07-29T06:47:25;7.60;;;3.03;;
81811;SDS011;71243;51.848;5.768;2023-07-29T06:49:51;7.83;;;3.57;;
81811;SDS011;71243;51.848;5.768;2023-07-29T06:52:16;8.47;;;3.13;;
81811;SDS011;71243;51.848;5.768;2023-07-29T06:54:41;7.30;;;3.13;;
81811;SDS011;71243;51.848;5.768;2023-07-29T06:57:06;9.35;;;3.90;;
81811;SDS011;71243;51.848;5.768;2023-07-29T06:59:32;8.27;;;3.17;;
81811;SDS011;71243;51.848;5.768;2023-07-29T07:01:57;9.33;;;3.10;;
81811;SDS011;71243;51.848;5.768;2023-07-29T07:04:22;8.65;;;3.58;;
81811;SDS011;71243;51.848;5.768;2023-07-29T07:06:47;7.10;;;3.40;;
81811;SDS011;71243;51.848;5.768;2023-07-29T07:09:12;9.23;;;3.83;;
81811;SDS011;71243;51.848;5.768;2023-07-29T07:11:38;9.73;;;3.80;;
81811;SDS011;71243;51.848;5.768;2023-07-29T07:14:03;8.37;;;4.07;;
81811;SDS011;71243;51.848;5.768;2023-07-29T07:16:28;7.77;;;3.67;;
81811;SDS011;71243;51.848;5.768;2023-07-29T07:18:53;9.60;;;3.87;;
81811;SDS011;71243;51.848;5.768;2023-07-29T07:21:18;8.87;;;4.10;;
81811;SDS011;71243;51.848;5.768;2023-07-29T07:23:44;9.27;;;3.93;;
81811;SDS011;71243;51.848;5.768;2023-07-29T07:26:09;12.07;;;4.90;;
81811;SDS011;71243;51.848;5.768;2023-07-29T07:28:34;8.20;;;3.77;;
81811;SDS011;71243;51.848;5.768;2023-07-29T07:30:59;9.02;;;3.85;;
81811;SDS011;71243;51.848;5.768;2023-07-29T07:33:24;10.80;;;3.60;;
81811;SDS011;71243;51.848;5.768;2023-07-29T07:35:50;8.47;;;4.23;;
81811;SDS011;71243;51.848;5.768;2023-07-29T07:38:15;9.17;;;4.50;;
81811;SDS011;71243;51.848;5.768;2023-07-29T07:40:40;8.43;;;3.43;;
81811;SDS011;71243;51.848;5.768;2023-07-29T07:43:05;7.70;;;3.53;;
81811;SDS011;71243;51.848;5.768;2023-07-29T07:45:31;7.90;;;3.30;;
81811;SDS011;71243;51.848;5.768;2023-07-29T07:47:57;8.30;;;3.92;;
81811;SDS011;71243;51.848;5.768;2023-07-29T07:50:22;7.57;;;3.60;;
81811;SDS011;71243;51.848;5.768;2023-07-29T07:52:47;8.80;;;3.93;;
81811;SDS011;71243;51.848;5.768;2023-07-29T07:55:13;7.67;;;3.27;;
81811;SDS011;71243;51.848;5.768;2023-07-29T07:57:38;6.67;;;3.00;;
81811;SDS011;71243;51.848;5.768;2023-07-29T08:00:03;6.83;;;3.07;;
81811;SDS011;71243;51.848;5.768;2023-07-29T08:02:29;11.40;;;3.05;;
81811;SDS011;71243;51.848;5.768;2023-07-29T08:04:54;9.23;;;3.10;;
81811;SDS011;71243;51.848;5.768;2023-07-29T08:07:20;6.77;;;2.83;;
81811;SDS011;71243;51.848;5.768;2023-07-29T08:09:45;8.30;;;3.00;;
81811;SDS011;71243;51.848;5.768;2023-07-29T08:12:10;6.47;;;3.03;;
81811;SDS011;71243;51.848;5.768;2023-07-29T08:14:35;6.35;;;2.67;;
81811;SDS011;71243;51.848;5.768;2023-07-29T08:17:00;6.57;;;3.10;;
81811;SDS011;71243;51.848;5.768;2023-07-29T08:19:26;7.20;;;2.83;;
81811;SDS011;71243;51.848;5.768;2023-07-29T08:21:51;6.68;;;2.90;;
81811;SDS011;71243;51.848;5.768;2023-07-29T08:24:17;6.47;;;2.67;;
81811;SDS011;71243;51.848;5.768;2023-07-29T08:26:42;6.78;;;3.10;;
81811;SDS011;71243;51.848;5.768;2023-07-29T08:29:07;6.33;;;3.00;;
81811;SDS011;71243;51.848;5.768;2023-07-29T08:31:32;7.07;;;2.73;;
81811;SDS011;71243;51.848;5.768;2023-07-29T08:33:57;8.17;;;2.80;;
81811;SDS011;71243;51.848;5.768;2023-07-29T08:36:23;7.33;;;2.23;;
81811;SDS011;71243;51.848;5.768;2023-07-29T08:38:48;5.20;;;1.97;;
81811;SDS011;71243;51.848;5.768;2023-07-29T08:41:14;5.63;;;2.43;;
81811;SDS011;71243;51.848;5.768;2023-07-29T08:44:18;6.30;;;2.42;;
81811;SDS011;71243;51.848;5.768;2023-07-29T08:46:45;5.45;;;2.13;;
81811;SDS011;71243;51.848;5.768;2023-07-29T08:49:11;5.68;;;2.10;;
81811;SDS011;71243;51.848;5.768;2023-07-29T08:51:37;5.97;;;2.28;;
81811;SDS011;71243;51.848;5.768;2023-07-29T08:54:03;6.00;;;2.20;;
81811;SDS011;71243;51.848;5.768;2023-07-29T08:56:29;6.07;;;1.70;;
81811;SDS011;71243;51.848;5.768;2023-07-29T08:58:54;5.80;;;2.00;;
81811;SDS011;71243;51.848;5.768;2023-07-29T09:01:20;5.80;;;1.77;;
81811;SDS011;71243;51.848;5.768;2023-07-29T09:03:45;5.70;;;2.30;;
81811;SDS011;71243;51.848;5.768;2023-07-29T09:06:10;6.82;;;2.33;;
81811;SDS011;71243;51.848;5.768;2023-07-29T09:08:36;6.18;;;2.30;;
81811;SDS011;71243;51.848;5.768;2023-07-29T09:11:02;5.40;;;2.30;;
81811;SDS011;71243;51.848;5.768;2023-07-29T09:13:28;7.40;;;2.72;;
81811;SDS011;71243;51.848;5.768;2023-07-29T09:15:59;6.13;;;2.33;;
81811;SDS011;71243;51.848;5.768;2023-07-29T09:18:25;6.78;;;2.53;;
81811;SDS011;71243;51.848;5.768;2023-07-29T09:20:52;7.57;;;3.10;;
81811;SDS011;71243;51.848;5.768;2023-07-29T09:23:18;6.35;;;2.85;;
81811;SDS011;71243;51.848;5.768;2023-07-29T09:25:43;6.78;;;3.35;;
81811;SDS011;71243;51.848;5.768;2023-07-29T09:28:12;8.90;;;3.17;;
81811;SDS011;71243;51.848;5.768;2023-07-29T09:30:47;5.95;;;2.30;;
81811;SDS011;71243;51.848;5.768;2023-07-29T09:33:12;6.88;;;2.47;;
81811;SDS011;71243;51.848;5.768;2023-07-29T09:35:38;5.88;;;2.58;;
81811;SDS011;71243;51.848;5.768;2023-07-29T09:38:04;5.22;;;2.45;;
81811;SDS011;71243;51.848;5.768;2023-07-29T09:40:34;6.35;;;2.72;;
81811;SDS011;71243;51.848;5.768;2023-07-29T09:43:03;5.20;;;2.28;;
81811;SDS011;71243;51.848;5.768;2023-07-29T09:45:32;5.97;;;2.22;;
81811;SDS011;71243;51.848;5.768;2023-07-29T09:47:58;5.95;;;2.72;;
81811;SDS011;71243;51.848;5.768;2023-07-29T09:50:24;6.47;;;2.85;;
81811;SDS011;71243;51.848;5.768;2023-07-29T09:52:50;6.25;;;3.17;;
81811;SDS011;71243;51.848;5.768;2023-07-29T09:55:19;7.00;;;3.22;;
81811;SDS011;71243;51.848;5.768;2023-07-29T09:57:46;6.70;;;3.72;;
81811;SDS011;71243;51.848;5.768;2023-07-29T10:00:12;6.18;;;3.40;;
81811;SDS011;71243;51.848;5.768;2023-07-29T10:02:39;6.57;;;3.17;;
81811;SDS011;71243;51.848;5.768;2023-07-29T10:05:06;6.82;;;3.40;;
81811;SDS011;71243;51.848;5.768;2023-07-29T10:07:32;7.05;;;3.90;;
81811;SDS011;71243;51.848;5.768;2023-07-29T10:09:58;7.50;;;3.63;;
81811;SDS011;71243;51.848;5.768;2023-07-29T10:12:25;7.65;;;3.70;;
81811;SDS011;71243;51.848;5.768;2023-07-29T10:14:50;7.30;;;3.33;;
81811;SDS011;71243;51.848;5.768;2023-07-29T10:17:16;5.82;;;3.03;;
81811;SDS011;71243;51.848;5.768;2023-07-29T10:19:45;6.43;;;3.28;;
81811;SDS011;71243;51.848;5.768;2023-07-29T10:22:11;6.93;;;3.20;;
81811;SDS011;71243;51.848;5.768;2023-07-29T10:24:38;7.15;;;2.60;;
81811;SDS011;71243;51.848;5.768;2023-07-29T10:27:06;5.68;;;2.03;;
81811;SDS011;71243;51.848;5.768;2023-07-29T10:29:32;4.72;;;1.75;;
81811;SDS011;71243;51.848;5.768;2023-07-29T10:32:03;4.80;;;1.73;;
81811;SDS011;71243;51.848;5.768;2023-07-29T10:34:30;5.25;;;1.58;;
81811;SDS011;71243;51.848;5.768;2023-07-29T10:36:56;4.47;;;1.70;;
81811;SDS011;71243;51.848;5.768;2023-07-29T10:39:24;4.70;;;1.67;;
81811;SDS011;71243;51.848;5.768;2023-07-29T10:42:03;3.58;;;1.35;;
81811;SDS011;71243;51.848;5.768;2023-07-29T10:49:44;4.90;;;1.60;;
81811;SDS011;71243;51.848;5.768;2023-07-29T10:52:14;4.88;;;1.67;;
81811;SDS011;71243;51.848;5.768;2023-07-29T10:54:52;4.53;;;1.63;;
81811;SDS011;71243;51.848;5.768;2023-07-29T10:57:34;5.03;;;1.70;;
81811;SDS011;71243;51.848;5.768;2023-07-29T11:00:02;4.40;;;1.65;;
81811;SDS011;71243;51.848;5.768;2023-07-29T11:02:33;3.88;;;1.25;;
81811;SDS011;71243;51.848;5.768;2023-07-29T11:05:07;5.78;;;1.55;;
81811;SDS011;71243;51.848;5.768;2023-07-29T11:07:47;4.90;;;1.60;;
81811;SDS011;71243;51.848;5.768;2023-07-29T11:10:13;3.92;;;1.33;;
81811;SDS011;71243;51.848;5.768;2023-07-29T11:20:08;4.18;;;1.30;;
81811;SDS011;71243;51.848;5.768;2023-07-29T11:22:34;4.38;;;1.60;;
81811;SDS011;71243;51.848;5.768;2023-07-29T11:25:00;5.57;;;1.60;;
81811;SDS011;71243;51.848;5.768;2023-07-29T11:27:26;4.03;;;1.27;;
81811;SDS011;71243;51.848;5.768;2023-07-29T11:29:56;5.30;;;1.40;;
81811;SDS011;71243;51.848;5.768;2023-07-29T11:32:22;4.13;;;1.38;;
81811;SDS011;71243;51.848;5.768;2023-07-29T11:34:47;4.78;;;1.60;;
81811;SDS011;71243;51.848;5.768;2023-07-29T11:37:12;4.57;;;1.33;;
81811;SDS011;71243;51.848;5.768;2023-07-29T11:39:41;5.05;;;1.35;;
81811;SDS011;71243;51.848;5.768;2023-07-29T11:42:07;3.90;;;1.27;;
81811;SDS011;71243;51.848;5.768;2023-07-29T11:44:36;3.08;;;1.17;;
81811;SDS011;71243;51.848;5.768;2023-07-29T11:47:01;4.10;;;1.33;;
81811;SDS011;71243;51.848;5.768;2023-07-29T11:49:27;4.93;;;1.80;;
81811;SDS011;71243;51.848;5.768;2023-07-29T11:51:52;5.45;;;1.75;;
81811;SDS011;71243;51.848;5.768;2023-07-29T11:54:18;5.93;;;1.63;;
81811;SDS011;71243;51.848;5.768;2023-07-29T11:56:43;4.88;;;1.35;;
81811;SDS011;71243;51.848;5.768;2023-07-29T11:59:09;8.02;;;1.63;;
81811;SDS011;71243;51.848;5.768;2023-07-29T12:01:34;4.70;;;1.40;;
81811;SDS011;71243;51.848;5.768;2023-07-29T12:04:00;5.53;;;1.35;;
81811;SDS011;71243;51.848;5.768;2023-07-29T12:06:25;5.82;;;1.10;;
81811;SDS011;71243;51.848;5.768;2023-07-29T12:08:51;5.53;;;1.40;;
81811;SDS011;71243;51.848;5.768;2023-07-29T12:11:16;4.35;;;1.30;;
81811;SDS011;71243;51.848;5.768;2023-07-29T12:13:42;4.47;;;1.10;;
81811;SDS011;71243;51.848;5.768;2023-07-29T12:16:08;5.03;;;2.20;;
81811;SDS011;71243;51.848;5.768;2023-07-29T12:18:33;4.68;;;1.05;;
81811;SDS011;71243;51.848;5.768;2023-07-29T12:20:59;4.20;;;0.90;;
81811;SDS011;71243;51.848;5.768;2023-07-29T12:23:25;3.72;;;1.00;;
81811;SDS011;71243;51.848;5.768;2023-07-29T12:25:57;3.40;;;0.88;;
81811;SDS011;71243;51.848;5.768;2023-07-29T12:28:24;3.97;;;1.00;;
81811;SDS011;71243;51.848;5.768;2023-07-29T12:30:53;5.47;;;0.90;;
81811;SDS011;71243;51.848;5.768;2023-07-29T12:33:31;3.42;;;0.93;;
81811;SDS011;71243;51.848;5.768;2023-07-29T12:35:58;6.47;;;1.10;;
81811;SDS011;71243;51.848;5.768;2023-07-29T12:38:25;2.92;;;0.90;;
81811;SDS011;71243;51.848;5.768;2023-07-29T12:40:51;2.55;;;0.90;;
81811;SDS011;71243;51.848;5.768;2023-07-29T12:43:16;6.13;;;1.15;;
81811;SDS011;71243;51.848;5.768;2023-07-29T12:45:41;3.75;;;1.02;;
81811;SDS011;71243;51.848;5.768;2023-07-29T12:48:07;3.90;;;1.10;;
81811;SDS011;71243;51.848;5.768;2023-07-29T12:50:33;5.80;;;1.63;;
81811;SDS011;71243;51.848;5.768;2023-07-29T12:52:58;5.57;;;1.50;;
81811;SDS011;71243;51.848;5.768;2023-07-29T12:55:23;4.67;;;1.63;;
81811;SDS011;71243;51.848;5.768;2023-07-29T12:57:49;5.55;;;1.83;;
81811;SDS011;71243;51.848;5.768;2023-07-29T13:00:15;5.93;;;1.90;;
81811;SDS011;71243;51.848;5.768;2023-07-29T13:02:40;5.60;;;2.45;;
81811;SDS011;71243;51.848;5.768;2023-07-29T13:05:06;6.63;;;2.30;;
81811;SDS011;71243;51.848;5.768;2023-07-29T13:07:35;6.32;;;2.55;;
81811;SDS011;71243;51.848;5.768;2023-07-29T13:10:00;6.93;;;2.97;;
81811;SDS011;71243;51.848;5.768;2023-07-29T13:12:25;6.45;;;2.90;;
81811;SDS011;71243;51.848;5.768;2023-07-29T13:14:51;6.57;;;2.83;;
81811;SDS011;71243;51.848;5.768;2023-07-29T13:17:16;7.78;;;3.78;;
81811;SDS011;71243;51.848;5.768;2023-07-29T13:19:41;6.37;;;3.20;;
81811;SDS011;71243;51.848;5.768;2023-07-29T13:22:06;7.83;;;3.43;;
81811;SDS011;71243;51.848;5.768;2023-07-29T13:24:31;7.27;;;3.80;;
81811;SDS011;71243;51.848;5.768;2023-07-29T13:26:57;7.60;;;4.17;;
81811;SDS011;71243;51.848;5.768;2023-07-29T13:29:22;7.73;;;3.80;;
81811;SDS011;71243;51.848;5.768;2023-07-29T13:31:47;7.60;;;3.73;;
81811;SDS011;71243;51.848;5.768;2023-07-29T13:34:12;6.13;;;3.07;;
81811;SDS011;71243;51.848;5.768;2023-07-29T13:36:37;8.03;;;4.23;;
81811;SDS011;71243;51.848;5.768;2023-07-29T13:39:03;7.23;;;3.40;;
81811;SDS011;71243;51.848;5.768;2023-07-29T13:41:28;6.03;;;2.77;;
81811;SDS011;71243;51.848;5.768;2023-07-29T13:43:53;6.40;;;3.17;;
81811;SDS011;71243;51.848;5.768;2023-07-29T13:46:18;6.57;;;3.43;;
81811;SDS011;71243;51.848;5.768;2023-07-29T13:48:43;6.77;;;2.90;;
81811;SDS011;71243;51.848;5.768;2023-07-29T13:51:09;6.17;;;2.57;;
81811;SDS011;71243;51.848;5.768;2023-07-29T13:53:34;5.90;;;2.43;;
81811;SDS011;71243;51.848;5.768;2023-07-29T13:55:59;5.93;;;2.50;;
81811;SDS011;71243;51.848;5.768;2023-07-29T13:58:24;5.20;;;2.30;;
81811;SDS011;71243;51.848;5.768;2023-07-29T14:00:49;5.57;;;2.40;;
81811;SDS011;71243;51.848;5.768;2023-07-29T14:03:15;5.77;;;2.83;;
81811;SDS011;71243;51.848;5.768;2023-07-29T14:05:40;6.87;;;2.83;;
81811;SDS011;71243;51.848;5.768;2023-07-29T14:08:05;7.40;;;3.38;;
81811;SDS011;71243;51.848;5.768;2023-07-29T14:10:30;6.63;;;3.33;;
81811;SDS011;71243;51.848;5.768;2023-07-29T14:12:56;6.90;;;2.90;;
81811;SDS011;71243;51.848;5.768;2023-07-29T14:15:21;7.07;;;2.53;;
81811;SDS011;71243;51.848;5.768;2023-07-29T14:17:46;6.18;;;2.75;;
81811;SDS011;71243;51.848;5.768;2023-07-29T14:20:11;8.53;;;2.63;;
81811;SDS011;71243;51.848;5.768;2023-07-29T14:22:38;6.10;;;2.65;;
81811;SDS011;71243;51.848;5.768;2023-07-29T14:25:03;5.90;;;2.90;;
81811;SDS011;71243;51.848;5.768;2023-07-29T14:27:29;6.00;;;2.88;;
81811;SDS011;71243;51.848;5.768;2023-07-29T14:29:54;5.70;;;2.77;;
81811;SDS011;71243;51.848;5.768;2023-07-29T14:32:19;5.73;;;2.50;;
81811;SDS011;71243;51.848;5.768;2023-07-29T14:34:45;5.85;;;2.95;;
81811;SDS011;71243;51.848;5.768;2023-07-29T14:37:10;6.00;;;2.60;;
81811;SDS011;71243;51.848;5.768;2023-07-29T14:39:35;6.40;;;2.53;;
81811;SDS011;71243;51.848;5.768;2023-07-29T14:42:00;5.83;;;2.50;;
81811;SDS011;71243;51.848;5.768;2023-07-29T14:44:25;5.60;;;1.93;;
81811;SDS011;71243;51.848;5.768;2023-07-29T14:46:51;6.03;;;1.97;;
81811;SDS011;71243;51.848;5.768;2023-07-29T14:49:16;5.80;;;1.73;;
81811;SDS011;71243;51.848;5.768;2023-07-29T14:51:41;4.82;;;1.75;;
81811;SDS011;71243;51.848;5.768;2023-07-29T14:54:06;4.25;;;1.70;;
81811;SDS011;71243;51.848;5.768;2023-07-29T14:56:32;7.17;;;1.70;;
81811;SDS011;71243;51.848;5.768;2023-07-29T14:58:57;4.50;;;1.63;;
81811;SDS011;71243;51.848;5.768;2023-07-29T15:01:22;4.90;;;1.97;;